Terminal Aerodrome Forecast
Issued by NWS

Home | Current Version | Previous Version | Text Only | Print | Product List | Glossary On
Versions: 1 2 3 4 5 6 7 8 9 10 11 12 13 14 15 16 17 18 19 20 21 22 23 24 25 26 27
000
FTUS46 KLOX 270200 AAA
TAFLAX
TAF AMD
KLAX 270250Z 2703/2806 25007KT P6SM SCT250
     FM270500 VRB03KT P6SM SCT250
     FM271100 VRB03KT 5SM BR OVC012
     FM271800 VRB03KT 6SM BR BKN015 BKN100
     FM272100 26012KT P6SM SCT015 BKN080
     FM280500 28008KT P6SM BKN015 BKN080=

USA.gov is the U.S. government's official web portal to all federal, state and local government web resources and services.